Time;durP1;ratioP1;P1;durP2;ratioP2;P2;SDS_P1;SDS_P2;PMS_P1;PMS_P2;Temp;Humidity;BMP_temperature;BMP_pressure;BME280_temperature;BME280_humidity;BME280_pressure;Samples;Min_cycle;Max_cycle;Signal;HPM_P1;HPM_P2
2022/09/26 00:00:08;;;;;;;7.57;3.13;;;22.30;52.50;;;;;;4835678;29;20464;-85
2022/09/26 00:06:16;;;;;;;4.83;2.40;;;22.30;52.60;;;;;;4808618;29;20432;-86
2022/09/26 00:09:27;;;;;;;4.03;2.70;;;22.30;52.60;;;;;;4819139;29;20475;-85
2022/09/26 00:15:41;;;;;;;3.70;2.80;;;22.40;52.60;;;;;;4818807;29;20429;-87
2022/09/26 00:28:48;;;;;;;3.27;2.50;;;22.30;52.50;;;;;;4837403;29;20472;-86
2022/09/26 00:31:57;;;;;;;2.90;2.60;;;22.30;52.60;;;;;;4837120;29;20425;-86
2022/09/26 00:35:21;;;;;;;2.77;2.50;;;22.30;52.60;;;;;;4835187;29;20421;-87
2022/09/26 00:38:23;;;;;;;2.70;2.17;;;22.30;52.60;;;;;;4835454;29;20427;-87
2022/09/26 00:41:54;;;;;;;;;;;;;;;;;;;;;
2022/09/26 00:49:03;;;;;;;3.03;2.40;;;22.30;52.60;;;;;;4833328;29;20528;-86
2022/09/26 00:52:15;;;;;;;3.70;2.60;;;22.30;52.60;;;;;;4767893;30;20425;-87
2022/09/26 00:58:45;;;;;;;2.83;2.17;;;22.30;52.70;;;;;;4728584;30;20452;-87
2022/09/26 01:02:21;;;;;;;;;;;;;;;;;;;;;
2022/09/26 01:05:25;;;;;;;3.80;2.50;;;22.30;52.60;;;;;;4731011;30;20498;-87
2022/09/26 01:08:14;;;;;;;2.30;2.07;;;22.30;52.60;;;;;;4730029;30;20956;-86
2022/09/26 01:21:36;;;;;;;3.00;2.70;;;22.30;52.70;;;;;;4738350;30;20456;-87
2022/09/26 01:24:35;;;;;;;2.97;2.30;;;22.20;52.70;;;;;;4761503;30;20895;-87
2022/09/26 01:27:58;;;;;;;4.37;2.63;;;22.20;52.70;;;;;;4750913;29;20468;-87
2022/09/26 01:35:08;;;;;;;;;;;;;;;;;;;;;
2022/09/26 01:38:19;;;;;;;2.70;2.33;;;22.20;52.80;;;;;;4790453;30;20459;-86
2022/09/26 01:41:11;;;;;;;2.90;2.20;;;22.20;52.80;;;;;;4800511;30;20820;-86
2022/09/26 01:48:00;;;;;;;3.13;2.30;;;22.20;52.70;;;;;;4800467;30;20474;-86
2022/09/26 01:51:01;;;;;;;2.93;2.40;;;22.20;52.70;;;;;;4780675;30;20459;-86
2022/09/26 01:54:10;;;;;;;;;;;;;;;;;;;;;
2022/09/26 02:00:23;;;;;;;2.53;1.97;;;22.20;53.30;;;;;;4780745;30;20495;-86
2022/09/26 02:03:22;;;;;;;2.30;2.10;;;22.20;52.70;;;;;;4825762;29;20419;-86
2022/09/26 02:06:47;;;;;;;3.57;2.43;;;22.20;52.70;;;;;;4886769;29;20433;-86
2022/09/26 02:09:51;;;;;;;4.70;2.33;;;22.20;52.60;;;;;;4926923;29;20443;-86
2022/09/26 02:16:38;;;;;;;;;;;;;;;;;;;;;
2022/09/26 02:26:47;;;;;;;4.67;2.80;;;22.20;52.80;;;;;;4928552;29;20424;-86
2022/09/26 02:29:48;;;;;;;3.17;2.20;;;22.10;52.70;;;;;;4971902;28;20417;-86
2022/09/26 02:39:52;;;;;;;3.00;2.40;;;22.10;52.80;;;;;;4927365;28;20403;-86
2022/09/26 02:42:57;;;;;;;3.40;2.40;;;22.10;52.80;;;;;;4854328;29;20796;-86
2022/09/26 02:45:51;;;;;;;2.40;2.00;;;22.10;52.80;;;;;;4856822;29;20433;-86
2022/09/26 02:52:50;;;;;;;2.23;1.83;;;22.10;52.80;;;;;;4872112;29;20414;-87
2022/09/26 02:55:50;;;;;;;3.80;2.50;;;22.10;52.80;;;;;;4874090;29;20445;-87
2022/09/26 02:59:01;;;;;;;3.10;2.33;;;22.10;52.90;;;;;;4874608;29;20417;-87
2022/09/26 03:02:14;;;;;;;2.90;2.57;;;22.10;52.90;;;;;;4891778;29;20520;-87
2022/09/26 03:05:16;;;;;;;2.77;2.03;;;22.10;52.90;;;;;;4890957;29;20466;-86
2022/09/26 03:08:01;;;;;;;2.60;2.33;;;22.10;52.90;;;;;;4890249;29;20504;-88
2022/09/26 03:20:49;;;;;;;2.30;2.07;;;22.10;52.80;;;;;;4930231;28;20483;-87
2022/09/26 03:24:07;;;;;;;;;;;;;;;;;;;;;
2022/09/26 03:27:10;;;;;;;1.73;1.53;;;22.10;52.80;;;;;;4927546;29;20617;-87
2022/09/26 03:37:07;;;;;;;3.07;2.10;;;22.10;52.80;;;;;;4912153;29;20572;-85
2022/09/26 03:43:33;;;;;;;2.33;1.93;;;22.10;52.80;;;;;;4908563;29;20436;-87
2022/09/26 03:50:10;;;;;;;;;;;;;;;;;;;;;
2022/09/26 04:00:27;;;;;;;2.10;1.70;;;22.10;52.80;;;;;;4854891;29;20483;-86
2022/09/26 04:06:43;;;;;;;3.17;1.90;;;22.10;52.80;;;;;;4856959;29;20422;-85
2022/09/26 04:13:06;;;;;;;2.77;1.90;;;22.10;52.80;;;;;;4837843;29;20428;-86
2022/09/26 04:16:18;;;;;;;1.60;1.50;;;22.10;52.90;;;;;;4852975;29;20492;-86
2022/09/26 04:26:18;;;;;;;2.27;1.80;;;22.10;52.80;;;;;;4854710;29;20715;-88
2022/09/26 04:29:09;;;;;;;2.07;1.87;;;22.10;52.80;;;;;;4838473;29;20455;-86
2022/09/26 04:32:08;;;;;;;2.37;1.90;;;22.10;52.80;;;;;;4854938;29;20475;-86
2022/09/26 04:38:42;;;;;;;2.30;1.90;;;22.10;52.80;;;;;;4854710;29;20431;-85
2022/09/26 04:45:00;;;;;;;;;;;;;;;;;;;;;
2022/09/26 04:48:17;;;;;;;2.20;1.83;;;22.10;52.70;;;;;;4812633;29;20536;-85
2022/09/26 04:55:16;;;;;;;;;;;;;;;;;;;;;
2022/09/26 04:58:15;;;;;;;1.57;1.47;;;22.10;52.70;;;;;;4808583;29;20457;-87
2022/09/26 05:07:59;;;;;;;2.43;1.90;;;22.10;52.70;;;;;;4851298;29;20496;-86
2022/09/26 05:17:30;;;;;;;2.00;1.60;;;22.10;52.70;;;;;;4860674;29;20414;-85
2022/09/26 05:30:03;;;;;;;2.30;1.63;;;22.10;52.80;;;;;;4916873;29;20440;-86
2022/09/26 05:46:37;;;;;;;;;;;;;;;;;;;;;
2022/09/26 06:02:37;;;;;;;2.00;1.40;;;22.10;52.70;;;;;;4858644;29;20529;-85
2022/09/26 06:05:42;;;;;;;1.67;1.40;;;22.10;52.70;;;;;;4901886;29;20425;-85
2022/09/26 06:08:32;;;;;;;3.33;2.00;;;22.10;52.70;;;;;;4910347;29;20525;-85
2022/09/26 06:18:09;;;;;;;1.77;1.67;;;22.10;52.60;;;;;;4891554;29;20389;-85
2022/09/26 06:20:49;;;;;;;1.70;1.50;;;22.10;52.70;;;;;;4870414;29;20784;-84
2022/09/26 06:23:40;;;;;;;1.67;1.47;;;22.10;52.70;;;;;;4894313;29;20414;-87
2022/09/26 06:26:39;;;;;;;2.07;1.73;;;22.10;52.70;;;;;;4892018;29;20420;-85
2022/09/26 06:29:25;;;;;;;3.10;1.87;;;22.10;52.70;;;;;;4899325;29;20518;-85
2022/09/26 06:32:11;;;;;;;2.80;1.73;;;22.10;52.70;;;;;;4901598;28;20499;-84
2022/09/26 06:34:50;;;;;;;1.97;1.60;;;22.10;52.60;;;;;;4960981;28;20410;-84
2022/09/26 06:37:41;;;;;;;1.67;1.57;;;22.10;52.60;;;;;;4959892;28;20904;-84
2022/09/26 06:40:39;;;;;;;1.73;1.40;;;22.10;52.60;;;;;;4967498;28;20441;-85
2022/09/26 06:43:37;;;;;;;1.50;1.10;;;22.10;52.60;;;;;;4958958;28;20882;-85
2022/09/26 06:46:19;;;;;;;2.53;1.60;;;22.10;52.50;;;;;;4967715;28;20417;-85
2022/09/26 06:55:19;;;;;;;2.63;1.80;;;22.20;52.60;;;;;;5071470;28;20958;-84
2022/09/26 06:57:58;;;;;;;3.33;1.67;;;22.10;52.50;;;;;;5057394;28;21017;-86
2022/09/26 07:04:26;;;;;;;;;;;;;;;;;;;;;
2022/09/26 07:07:30;;;;;;;3.00;1.60;;;22.10;52.60;;;;;;4993412;28;20548;-84
2022/09/26 07:10:17;;;;;;;1.93;1.33;;;22.10;52.60;;;;;;4997879;28;20407;-84
2022/09/26 07:13:28;;;;;;;2.20;1.90;;;22.10;52.60;;;;;;4993883;28;20866;-84
2022/09/26 07:19:47;;;;;;;1.67;1.40;;;22.10;52.60;;;;;;4952133;29;20402;-85
2022/09/26 07:32:18;;;;;;;2.30;1.40;;;22.10;52.60;;;;;;5154586;22;20510;-83
2022/09/26 07:35:19;;;;;;;;;;;;;;;;;;;;;
2022/09/26 07:38:25;;;;;;;2.77;1.60;;;22.10;52.80;;;;;;5075398;28;20428;-83
2022/09/26 07:54:40;;;;;;;1.83;1.50;;;22.10;52.80;;;;;;5027656;28;20411;-84
2022/09/26 07:57:38;;;;;;;3.07;1.90;;;22.10;52.90;;;;;;5015049;28;20419;-83
2022/09/26 08:16:46;;;;;;;1.83;1.50;;;22.20;52.80;;;;;;4967885;29;20402;-85
2022/09/26 08:26:37;;;;;;;1.83;1.57;;;22.20;52.90;;;;;;4929766;29;20411;-87
2022/09/26 08:29:23;;;;;;;1.87;1.60;;;22.20;52.90;;;;;;4852766;29;20546;-84
2022/09/26 08:32:24;;;;;;;2.27;1.70;;;22.20;52.90;;;;;;4929260;29;20412;-84
2022/09/26 08:35:24;;;;;;;1.40;1.20;;;22.20;52.80;;;;;;4901808;29;20436;-83
2022/09/26 08:41:40;;;;;;;2.13;1.10;;;22.20;52.80;;;;;;4987191;28;20377;-84
2022/09/26 08:44:38;;;;;;;2.17;1.73;;;22.20;52.80;;;;;;4970359;28;20412;-83
2022/09/26 08:47:39;;;;;;;2.60;1.97;;;22.20;52.80;;;;;;4971463;28;20465;-83
2022/09/26 08:57:26;;;;;;;1.27;1.17;;;22.20;52.70;;;;;;4967267;28;20418;-84
2022/09/26 09:07:31;;;;;;;1.97;1.57;;;22.30;52.80;;;;;;4986413;28;20396;-84
2022/09/26 09:14:02;;;;;;;1.97;1.47;;;22.30;52.90;;;;;;4986347;28;20394;-84
2022/09/26 09:17:05;;;;;;;1.57;1.37;;;22.30;52.90;;;;;;4872792;29;20414;-84
2022/09/26 09:19:55;;;;;;;1.80;1.50;;;22.30;52.90;;;;;;4872285;29;20451;-84
2022/09/26 09:22:33;;;;;;;2.10;1.13;;;22.30;52.90;;;;;;4857170;29;20415;-85
2022/09/26 09:25:36;;;;;;;1.57;1.30;;;22.30;52.90;;;;;;4858001;29;20414;-84
2022/09/26 09:28:39;;;;;;;3.00;1.40;;;22.30;52.90;;;;;;4873206;29;20537;-83
2022/09/26 09:31:38;;;;;;;1.77;1.60;;;22.40;52.90;;;;;;4873640;29;20422;-84
2022/09/26 09:34:33;;;;;;;1.90;1.43;;;22.40;52.90;;;;;;4873802;29;20414;-84
2022/09/26 09:37:40;;;;;;;1.63;1.43;;;22.40;53.00;;;;;;4860908;29;20434;-85
2022/09/26 09:40:36;;;;;;;1.90;1.37;;;22.40;52.90;;;;;;4894166;29;20444;-84
2022/09/26 09:43:25;;;;;;;1.50;1.40;;;22.40;52.90;;;;;;4896533;29;20419;-84
2022/09/26 09:46:03;;;;;;;2.40;1.77;;;22.40;52.90;;;;;;4913738;29;20418;-85
2022/09/26 09:48:51;;;;;;;2.87;1.47;;;22.40;52.90;;;;;;4913218;29;20467;-83
2022/09/26 09:51:26;;;;;;;1.67;1.30;;;22.40;52.90;;;;;;4912566;29;20908;-85
2022/09/26 09:54:13;;;;;;;2.67;1.60;;;22.40;52.90;;;;;;4994505;28;20480;-84
2022/09/26 09:57:17;;;;;;;;;;;;;;;;;;;;;
2022/09/26 10:05:52;;;;;;;2.37;1.00;;;22.50;52.90;;;;;;5022175;26;20484;-85
2022/09/26 10:08:41;;;;;;;2.30;2.07;;;22.50;53.00;;;;;;5048688;28;20517;-84
2022/09/26 10:16:58;;;;;;;3.73;1.40;;;22.50;52.90;;;;;;5023290;28;20783;-85
2022/09/26 10:19:38;;;;;;;2.10;1.20;;;22.50;52.90;;;;;;5005985;28;20865;-85
2022/09/26 10:22:36;;;;;;;2.37;1.27;;;22.50;53.50;;;;;;5006500;28;20417;-85
2022/09/26 10:25:34;;;;;;;2.40;1.60;;;22.50;52.90;;;;;;5014059;28;20435;-85
2022/09/26 10:28:48;;;;;;;1.80;1.30;;;22.50;52.90;;;;;;5029787;28;20490;-85
2022/09/26 10:31:33;;;;;;;1.50;1.40;;;22.60;53.00;;;;;;4975285;28;20417;-85
2022/09/26 10:34:08;;;;;;;1.77;1.63;;;22.50;52.90;;;;;;4973970;28;20413;-85
2022/09/26 10:36:58;;;;;;;1.93;1.50;;;22.50;52.90;;;;;;4974179;28;20552;-85
2022/09/26 10:46:20;;;;;;;1.70;1.30;;;22.60;53.00;;;;;;4970212;29;20369;-84
2022/09/26 10:49:06;;;;;;;1.43;1.17;;;22.60;53.00;;;;;;4953350;29;20461;-85
2022/09/26 10:51:49;;;;;;;1.53;1.33;;;22.60;53.00;;;;;;4967650;29;20428;-84
2022/09/26 10:54:31;;;;;;;1.70;1.47;;;22.60;53.00;;;;;;4971025;29;20840;-84
2022/09/26 11:05:55;;;;;;;2.50;1.50;;;22.60;52.90;;;;;;4954214;28;20484;-85
2022/09/26 11:07:43;;;;;;;2.10;1.50;;;22.60;52.90;;;;;;4929823;29;20457;-85
2022/09/26 11:10:40;;;;;;;1.97;1.30;;;22.60;52.90;;;;;;4964080;29;20485;-84
2022/09/26 11:20:10;;;;;;;1.13;0.90;;;22.60;52.90;;;;;;4969737;29;20385;-85
2022/09/26 11:23:06;;;;;;;1.70;1.43;;;22.60;53.00;;;;;;4967750;29;20438;-85
2022/09/26 11:26:17;;;;;;;1.60;1.40;;;22.60;52.90;;;;;;4926414;29;20410;-85
2022/09/26 11:29:33;;;;;;;2.07;1.30;;;22.60;53.00;;;;;;4933511;29;20470;-84
2022/09/26 11:42:44;;;;;;;1.83;1.47;;;22.60;53.00;;;;;;5015437;28;20383;-86
2022/09/26 11:46:04;;;;;;;1.60;1.40;;;22.50;52.90;;;;;;4959706;29;20414;-83
2022/09/26 11:59:56;;;;;;;;;;;;;;;;;;;;;
2022/09/26 12:05:58;;;;;;;1.70;1.50;;;22.50;53.00;;;;;;4892257;29;20402;-85
2022/09/26 12:09:15;;;;;;;1.73;1.37;;;22.50;53.50;;;;;;4873436;29;20489;-84
2022/09/26 12:12:18;;;;;;;2.60;1.40;;;22.50;52.90;;;;;;4892291;29;20436;-85
2022/09/26 12:15:24;;;;;;;1.70;1.50;;;22.50;53.00;;;;;;4876365;29;20481;-84
2022/09/26 12:18:24;;;;;;;;;;;;;;;;;;;;;
2022/09/26 12:21:16;;;;;;;1.80;1.33;;;22.50;53.00;;;;;;4891624;29;20504;-85
2022/09/26 12:34:36;;;;;;;1.40;1.20;;;22.50;53.00;;;;;;4931072;28;20388;-85
2022/09/26 12:38:22;;;;;;;1.67;1.57;;;22.50;53.00;;;;;;4914059;29;20741;-85
2022/09/26 12:54:55;;;;;;;1.50;1.40;;;22.50;53.10;;;;;;4909754;29;20392;-84
2022/09/26 13:22:10;;;;;;;1.30;1.10;;;22.50;53.10;;;;;;4884914;29;20397;-85
2022/09/26 13:29:02;;;;;;;1.80;1.30;;;22.50;53.10;;;;;;4835132;29;20818;-84
2022/09/26 13:32:21;;;;;;;2.03;1.33;;;22.50;53.20;;;;;;4816602;29;20421;-85
2022/09/26 13:46:49;;;;;;;2.20;1.50;;;22.50;53.20;;;;;;4745286;30;20464;-85
2022/09/26 13:49:49;;;;;;;2.03;1.30;;;22.50;53.20;;;;;;4744369;30;20782;-85
2022/09/26 13:52:40;;;;;;;2.57;1.53;;;22.50;53.20;;;;;;4745508;30;20813;-84
2022/09/26 13:55:53;;;;;;;1.30;1.20;;;22.50;53.10;;;;;;4747623;30;20903;-84
2022/09/26 14:15:47;;;;;;;1.60;1.10;;;22.60;53.10;;;;;;4859924;29;20567;-85
2022/09/26 14:18:46;;;;;;;2.60;1.43;;;22.60;53.10;;;;;;4893412;29;20532;-85
2022/09/26 14:21:56;;;;;;;1.70;1.37;;;22.60;53.10;;;;;;4930538;29;20446;-86
2022/09/26 14:24:48;;;;;;;1.40;1.30;;;22.60;53.00;;;;;;4907188;29;20480;-86
2022/09/26 14:28:05;;;;;;;1.50;1.30;;;22.70;53.10;;;;;;4929697;29;20482;-85
2022/09/26 14:37:48;;;;;;;1.30;1.20;;;22.70;53.00;;;;;;4872485;29;20492;-86
2022/09/26 15:07:59;;;;;;;1.70;1.10;;;22.80;53.10;;;;;;4948087;29;20453;-86
2022/09/26 15:28:29;;;;;;;1.70;1.37;;;22.80;53.20;;;;;;4839809;29;20485;-86
2022/09/26 15:31:23;;;;;;;1.30;1.10;;;22.80;53.20;;;;;;4838859;29;20833;-86
2022/09/26 15:34:54;;;;;;;1.93;1.40;;;22.80;53.10;;;;;;4840236;29;20432;-84
2022/09/26 15:38:21;;;;;;;2.47;1.13;;;22.80;53.10;;;;;;4749416;30;20495;-86
2022/09/26 15:48:46;;;;;;;1.70;1.40;;;22.80;53.10;;;;;;4784704;30;20563;-86
2022/09/26 15:59:03;;;;;;;;;;;;;;;;;;;;;
2022/09/26 16:05:09;;;;;;;1.63;1.00;;;22.90;53.20;;;;;;4897032;29;20404;-86
2022/09/26 16:08:03;;;;;;;1.10;0.90;;;22.80;53.10;;;;;;4880181;29;20514;-86
2022/09/26 16:10:35;;;;;;;1.50;1.40;;;22.90;53.20;;;;;;4894171;29;20476;-87
2022/09/26 16:13:24;;;;;;;2.13;1.13;;;22.90;53.20;;;;;;4873494;29;20471;-85
2022/09/26 16:23:25;;;;;;;2.70;1.23;;;22.90;53.20;;;;;;4895398;29;20422;-85
2022/09/26 16:29:48;;;;;;;3.83;1.50;;;22.80;53.10;;;;;;4925605;29;20500;-84
2022/09/26 16:32:19;;;;;;;3.00;1.20;;;22.80;53.10;;;;;;4929629;29;20424;-85
2022/09/26 16:34:49;;;;;;;1.50;1.10;;;22.80;53.10;;;;;;4913473;29;20410;-84
2022/09/26 16:37:46;;;;;;;2.67;1.40;;;22.80;53.10;;;;;;4919768;29;20772;-85
2022/09/26 16:47:12;;;;;;;;;;;;;;;;;;;;;
2022/09/26 16:53:29;;;;;;;;;;;;;;;;;;;;;
2022/09/26 16:56:10;;;;;;;2.00;1.57;;;22.80;53.00;;;;;;4811385;29;20513;-85
2022/09/26 16:59:18;;;;;;;1.40;1.13;;;22.80;53.00;;;;;;4783919;30;20514;-85
2022/09/26 17:02:30;;;;;;;1.77;1.20;;;22.80;53.00;;;;;;4784722;30;20986;-85
2022/09/26 17:05:27;;;;;;;;;;;;;;;;;;;;;
2022/09/26 17:08:23;;;;;;;;;;;;;;;;;;;;;
2022/09/26 17:11:00;;;;;;;1.10;1.00;;;22.80;53.00;;;;;;4860425;29;20487;-85
2022/09/26 17:16:38;;;;;;;1.43;1.00;;;22.80;53.00;;;;;;4872254;29;20434;-85
2022/09/26 17:19:24;;;;;;;1.83;1.27;;;22.80;53.00;;;;;;4842416;29;20450;-85
2022/09/26 17:21:59;;;;;;;1.83;1.03;;;22.80;52.90;;;;;;4871877;29;20418;-85
2022/09/26 17:24:45;;;;;;;1.50;1.27;;;22.80;52.90;;;;;;4872003;29;20429;-84
2022/09/26 17:27:56;;;;;;;1.67;1.30;;;22.80;52.90;;;;;;4855927;29;20474;-85
2022/09/26 17:37:48;;;;;;;1.20;1.03;;;22.70;52.70;;;;;;4872589;29;20510;-85
2022/09/26 17:40:28;;;;;;;1.50;1.17;;;22.70;52.80;;;;;;4873428;29;20438;-85
2022/09/26 17:43:12;;;;;;;1.50;1.20;;;22.70;52.80;;;;;;4858625;29;20442;-85
2022/09/26 17:45:51;;;;;;;1.40;1.00;;;22.70;52.80;;;;;;4873766;29;20963;-85
2022/09/26 17:48:26;;;;;;;1.20;0.90;;;22.70;52.80;;;;;;4874570;29;20474;-85
2022/09/26 17:51:21;;;;;;;2.27;1.20;;;22.60;52.70;;;;;;4870482;29;20438;-85
2022/09/26 17:54:23;;;;;;;1.50;1.00;;;22.60;52.70;;;;;;4865838;29;20479;-85
2022/09/26 17:56:59;;;;;;;1.10;1.00;;;22.60;52.70;;;;;;4872446;29;20434;-85
2022/09/26 17:59:40;;;;;;;2.03;1.10;;;22.60;52.70;;;;;;4857577;29;20497;-85
2022/09/26 18:02:52;;;;;;;1.20;1.03;;;22.60;52.70;;;;;;4872776;29;20423;-85
2022/09/26 18:05:49;;;;;;;1.60;1.00;;;22.60;52.70;;;;;;4817366;29;20449;-85
2022/09/26 18:09:04;;;;;;;1.53;1.23;;;22.60;52.80;;;;;;4801501;29;20472;-85
2022/09/26 18:15:33;;;;;;;1.20;1.03;;;22.50;52.70;;;;;;4832438;29;20400;-85
2022/09/26 18:18:33;;;;;;;1.50;1.00;;;22.50;52.80;;;;;;4835483;29;20424;-85
2022/09/26 18:21:19;;;;;;;1.73;1.10;;;22.50;52.90;;;;;;4835894;29;20424;-85
2022/09/26 18:24:08;;;;;;;1.30;1.17;;;22.50;52.90;;;;;;4819640;29;20424;-85
2022/09/26 18:27:06;;;;;;;1.20;0.80;;;22.50;52.90;;;;;;4835832;29;20416;-85
2022/09/26 18:30:12;;;;;;;1.50;1.20;;;22.50;52.90;;;;;;4835308;29;20472;-85
2022/09/26 18:39:50;;;;;;;1.30;0.90;;;22.50;52.90;;;;;;4816304;29;20460;-85
2022/09/26 18:42:26;;;;;;;1.37;1.00;;;22.50;52.90;;;;;;4820146;29;20446;-86
2022/09/26 18:58:26;;;;;;;1.00;0.90;;;22.50;52.90;;;;;;4852310;29;20816;-85
2022/09/26 19:01:37;;;;;;;1.10;0.80;;;22.50;52.90;;;;;;4850324;29;20455;-85
2022/09/26 19:04:28;;;;;;;;;;;;;;;;;;;;;
2022/09/26 19:07:52;;;;;;;;;;;;;;;;;;;;;
2022/09/26 19:10:58;;;;;;;;;;;;;;;;;;;;;
2022/09/26 19:13:46;;;;;;;1.20;0.93;;;22.40;52.80;;;;;;4923064;29;20513;-85
2022/09/26 19:16:41;;;;;;;1.23;1.03;;;22.40;52.80;;;;;;4942290;29;20431;-86
2022/09/26 19:19:49;;;;;;;1.47;1.00;;;22.50;52.80;;;;;;4958194;29;20426;-85
2022/09/26 19:29:27;;;;;;;1.20;0.87;;;22.50;52.80;;;;;;4866642;29;20908;-86
2022/09/26 19:32:10;;;;;;;1.43;0.93;;;22.50;52.80;;;;;;4872079;29;20438;-87
2022/09/26 19:44:23;;;;;;;1.57;0.90;;;22.40;52.70;;;;;;4880709;29;20441;-85
2022/09/26 19:47:05;;;;;;;1.37;1.13;;;22.40;52.70;;;;;;4884835;29;20465;-85
2022/09/26 19:56:33;;;;;;;1.30;1.00;;;22.50;52.70;;;;;;4843850;29;20444;-85
2022/09/26 19:59:45;;;;;;;1.63;1.00;;;22.40;52.70;;;;;;4832286;29;20419;-85
2022/09/26 20:05:46;;;;;;;0.90;0.77;;;22.40;52.70;;;;;;4866866;29;20867;-85
2022/09/26 20:08:33;;;;;;;0.90;0.80;;;22.40;52.70;;;;;;4869313;29;20569;-85
2022/09/26 20:11:16;;;;;;;1.40;0.93;;;22.40;52.70;;;;;;4851332;29;20499;-85
2022/09/26 20:26:08;;;;;;;1.30;0.90;;;22.40;52.70;;;;;;4866414;29;20407;-85
2022/09/26 20:28:39;;;;;;;1.30;1.10;;;22.40;52.70;;;;;;4876479;29;20773;-85
2022/09/26 20:31:42;;;;;;;1.07;0.90;;;22.40;52.70;;;;;;4881727;29;20409;-85
2022/09/26 20:34:36;;;;;;;1.30;1.13;;;22.50;52.70;;;;;;4881493;29;20436;-85
2022/09/26 20:40:34;;;;;;;1.23;0.97;;;22.40;52.60;;;;;;4944204;29;20928;-85
2022/09/26 20:43:50;;;;;;;1.80;1.70;;;22.50;52.80;;;;;;4925830;29;20438;-85
2022/09/26 20:46:25;;;;;;;1.10;1.00;;;22.40;52.70;;;;;;4920681;29;20451;-85
2022/09/26 20:49:01;;;;;;;1.20;0.97;;;22.40;52.70;;;;;;4913801;29;20459;-85
2022/09/26 20:51:43;;;;;;;1.93;0.90;;;22.40;52.70;;;;;;4989533;28;20976;-85
2022/09/26 20:57:44;;;;;;;1.10;0.90;;;22.40;52.60;;;;;;4995327;28;20412;-85
2022/09/26 21:00:36;;;;;;;1.47;0.90;;;22.40;52.60;;;;;;4993327;28;20420;-86
2022/09/26 21:03:31;;;;;;;1.50;0.83;;;22.40;52.60;;;;;;4989539;28;20540;-85
2022/09/26 21:06:44;;;;;;;1.50;1.10;;;22.40;52.60;;;;;;4991458;28;20512;-85
2022/09/26 21:09:52;;;;;;;;;;;;;;;;;;;;;
2022/09/26 21:12:39;;;;;;;1.10;0.90;;;22.40;52.60;;;;;;4932418;29;20439;-85
2022/09/26 21:15:53;;;;;;;2.27;1.00;;;22.40;52.60;;;;;;4945191;29;20520;-85
2022/09/26 21:19:04;;;;;;;1.20;1.00;;;22.40;52.60;;;;;;4953761;29;20419;-84
2022/09/26 21:28:37;;;;;;;1.13;1.00;;;22.40;52.60;;;;;;4951439;28;20497;-85
2022/09/26 21:32:04;;;;;;;;;;;;;;;;;;;;;
2022/09/26 21:34:58;;;;;;;1.20;1.00;;;22.40;52.70;;;;;;4934946;29;20516;-86
2022/09/26 21:37:41;;;;;;;1.20;1.00;;;22.40;52.70;;;;;;4932560;29;20460;-84
2022/09/26 21:40:37;;;;;;;1.60;1.10;;;22.40;52.70;;;;;;4966037;28;20421;-86
2022/09/26 21:43:31;;;;;;;1.20;1.00;;;22.40;52.70;;;;;;4972496;28;20444;-84
2022/09/26 21:46:07;;;;;;;1.70;0.83;;;22.40;52.80;;;;;;4911048;29;20532;-84
2022/09/26 21:48:46;;;;;;;1.50;1.20;;;22.40;52.80;;;;;;4925034;29;20551;-84
2022/09/26 21:51:33;;;;;;;1.40;1.00;;;22.40;52.80;;;;;;4914888;29;20826;-84
2022/09/26 21:54:45;;;;;;;;;;;;;;;;;;;;;
2022/09/26 21:57:46;;;;;;;2.07;0.90;;;22.30;52.70;;;;;;4946663;29;20501;-85
2022/09/26 22:00:27;;;;;;;1.43;1.20;;;22.30;52.70;;;;;;4950774;29;20474;-84
2022/09/26 22:03:25;;;;;;;1.30;1.00;;;22.30;52.80;;;;;;4946611;29;20414;-85
2022/09/26 22:06:10;;;;;;;1.17;1.00;;;22.30;52.80;;;;;;4929457;29;20430;-85
2022/09/26 22:09:05;;;;;;;1.10;0.90;;;22.30;52.80;;;;;;4927397;29;20804;-85
2022/09/26 22:12:09;;;;;;;1.30;1.03;;;22.30;52.80;;;;;;4940173;29;20434;-85
2022/09/26 22:15:08;;;;;;;1.33;0.97;;;22.30;52.80;;;;;;4969252;29;20421;-83
2022/09/26 22:17:50;;;;;;;1.07;0.90;;;22.30;52.80;;;;;;4952636;29;20582;-84
2022/09/26 22:20:45;;;;;;;1.40;1.30;;;22.30;52.80;;;;;;4950932;29;20426;-86
2022/09/26 22:23:34;;;;;;;1.40;0.90;;;22.30;52.80;;;;;;5012968;28;20429;-85
2022/09/26 22:26:15;;;;;;;1.13;1.00;;;22.30;52.90;;;;;;5025281;28;20892;-84
2022/09/26 22:28:57;;;;;;;1.30;1.00;;;22.30;52.80;;;;;;5026616;28;20462;-85
2022/09/26 22:31:56;;;;;;;1.27;1.00;;;22.30;52.90;;;;;;5028197;28;20410;-84
2022/09/26 22:34:24;;;;;;;1.33;0.80;;;22.30;52.90;;;;;;5026698;28;20498;-86
2022/09/26 22:36:53;;;;;;;1.50;1.20;;;22.30;52.90;;;;;;5026380;28;20442;-85
2022/09/26 22:39:20;;;;;;;1.20;0.90;;;22.30;52.90;;;;;;5025671;28;20412;-84
2022/09/26 22:41:56;;;;;;;1.20;1.10;;;22.30;52.90;;;;;;5026999;28;20424;-86
2022/09/26 22:44:26;;;;;;;1.20;0.90;;;22.30;52.90;;;;;;5024601;28;20434;-85
2022/09/26 22:47:18;;;;;;;1.57;0.93;;;22.30;52.90;;;;;;5026666;28;20439;-85
2022/09/26 22:53:49;;;;;;;1.37;1.20;;;22.30;52.80;;;;;;5028723;28;20386;-84
2022/09/26 22:56:32;;;;;;;1.00;0.87;;;22.30;52.80;;;;;;5029227;28;20756;-85
2022/09/26 22:59:11;;;;;;;1.97;1.20;;;22.30;52.90;;;;;;5026359;28;20423;-85
2022/09/26 23:01:50;;;;;;;1.40;1.07;;;22.30;52.80;;;;;;5031258;28;20702;-83
2022/09/26 23:07:27;;;;;;;1.63;1.00;;;22.30;52.80;;;;;;5022379;28;20459;-83
2022/09/26 23:10:02;;;;;;;1.00;0.80;;;22.30;52.80;;;;;;5027219;28;20414;-84
2022/09/26 23:12:50;;;;;;;1.60;1.10;;;22.30;52.80;;;;;;5029952;28;20475;-85
2022/09/26 23:15:19;;;;;;;1.10;0.90;;;22.30;52.70;;;;;;5025207;28;20434;-85
2022/09/26 23:17:46;;;;;;;1.30;0.97;;;22.30;52.70;;;;;;5026415;28;20728;-85
2022/09/26 23:20:21;;;;;;;1.20;1.10;;;22.30;52.70;;;;;;5025069;28;20506;-85
2022/09/26 23:22:57;;;;;;;3.00;1.37;;;22.30;52.70;;;;;;5024641;28;20442;-85
2022/09/26 23:25:43;;;;;;;1.13;0.90;;;22.30;52.70;;;;;;5021457;28;20736;-85
2022/09/26 23:28:13;;;;;;;1.30;1.00;;;22.30;52.70;;;;;;5025375;28;20447;-85
2022/09/26 23:30:39;;;;;;;1.10;0.80;;;22.30;52.70;;;;;;5027261;28;20451;-87
2022/09/26 23:33:28;;;;;;;1.30;0.87;;;22.30;52.70;;;;;;5024883;28;20442;-85
2022/09/26 23:36:03;;;;;;;1.30;1.10;;;22.30;52.70;;;;;;5029629;28;20411;-85
2022/09/26 23:38:32;;;;;;;1.13;1.03;;;22.30;52.70;;;;;;5029459;28;20439;-86
2022/09/26 23:40:59;;;;;;;1.73;1.00;;;22.30;52.60;;;;;;5029569;28;20445;-85
2022/09/26 23:43:26;;;;;;;1.10;0.90;;;22.30;52.60;;;;;;5027634;28;20415;-85
2022/09/26 23:46:01;;;;;;;0.90;0.70;;;22.40;52.70;;;;;;5028115;28;20419;-85
2022/09/26 23:48:38;;;;;;;1.30;1.10;;;22.40;52.70;;;;;;5031560;28;20509;-85
2022/09/26 23:51:09;;;;;;;1.30;0.90;;;22.40;52.70;;;;;;5013489;28;20415;-85
2022/09/26 23:53:40;;;;;;;1.00;0.90;;;22.30;52.60;;;;;;5016868;28;20427;-85
2022/09/26 23:56:42;;;;;;;1.20;1.00;;;22.40;52.70;;;;;;5011732;28;20392;-85
2022/09/26 23:59:37;;;;;;;1.30;0.90;;;22.30;52.60;;;;;;5029336;28;20488;-84
